createdAt,value
2023-02-28T00:00:23.375Z,97185.81
2023-02-28T00:02:49.999Z,97193.47
2023-02-28T00:05:16.371Z,97193.63
2023-02-28T00:07:42.795Z,97194.16
2023-02-28T00:10:09.280Z,97205.00
2023-02-28T00:12:35.735Z,97202.16
2023-02-28T00:15:02.178Z,97204.31
2023-02-28T00:17:28.706Z,97198.06
2023-02-28T00:19:55.160Z,97198.06
2023-02-28T00:22:21.579Z,97199.88
2023-02-28T00:24:47.976Z,97198.06
2023-02-28T00:27:14.380Z,97194.41
2023-02-28T00:29:40.803Z,97198.06
2023-02-28T00:32:07.176Z,97195.25
2023-02-28T00:34:33.560Z,97194.06
2023-02-28T00:36:59.918Z,97197.09
2023-02-28T00:39:26.301Z,97185.88
2023-02-28T00:41:52.727Z,97197.38
2023-02-28T00:44:19.092Z,97194.34
2023-02-28T00:46:45.716Z,97199.38
2023-02-28T00:49:12.139Z,97195.63
2023-02-28T00:51:38.573Z,97198.66
2023-02-28T00:54:04.940Z,97200.28
2023-02-28T00:56:31.373Z,97199.94
2023-02-28T00:58:57.848Z,97203.53
2023-02-28T01:01:24.288Z,97201.69
2023-02-28T01:03:50.680Z,97198.28
2023-02-28T01:06:17.043Z,97199.94
2023-02-28T01:08:43.636Z,97196.44
2023-02-28T01:11:10.069Z,97200.66
2023-02-28T01:13:36.528Z,97196.28
2023-02-28T01:16:02.929Z,97181.47
2023-02-28T01:18:29.529Z,97190.59
2023-02-28T01:20:55.932Z,97186.59
2023-02-28T01:23:22.351Z,97182.06
2023-02-28T01:25:48.680Z,97182.41
2023-02-28T01:28:15.081Z,97178.25
2023-02-28T01:30:41.526Z,97176.91
2023-02-28T01:33:07.923Z,97183.91
2023-02-28T01:35:34.326Z,97181.59
2023-02-28T01:38:09.547Z,97191.16
2023-02-28T01:40:42.273Z,97185.28
2023-02-28T01:43:08.751Z,97191.59
2023-02-28T01:45:35.147Z,97184.91
2023-02-28T01:48:01.567Z,97185.91
2023-02-28T01:50:27.973Z,97183.25
2023-02-28T01:52:54.543Z,97189.06
2023-02-28T01:55:21.046Z,97186.75
2023-02-28T01:57:47.379Z,97189.06
2023-02-28T02:00:13.942Z,97190.75
2023-02-28T02:02:40.371Z,97190.06
2023-02-28T02:05:06.888Z,97186.22
2023-02-28T02:07:36.366Z,97185.41
2023-02-28T02:10:02.815Z,97182.06
2023-02-28T02:12:29.223Z,97191.91
2023-02-28T02:14:55.869Z,97192.72
2023-02-28T02:17:22.344Z,97179.56
2023-02-28T02:19:48.776Z,97178.59
2023-02-28T02:22:15.201Z,97176.28
2023-02-28T02:24:41.593Z,97182.41
2023-02-28T02:27:08.019Z,97181.47
2023-02-28T02:29:34.428Z,97179.25
2023-02-28T02:32:00.870Z,97181.81
2023-02-28T02:34:27.262Z,97184.94
2023-02-28T02:36:53.686Z,97185.25
2023-02-28T02:39:20.095Z,97186.25
2023-02-28T02:41:46.488Z,97180.13
2023-02-28T02:44:12.884Z,97178.53
2023-02-28T02:46:39.369Z,97183.69
2023-02-28T02:49:05.788Z,97192.72
2023-02-28T02:51:32.316Z,97182.22
2023-02-28T02:53:58.726Z,97194.03
2023-02-28T02:56:25.091Z,97189.38
2023-02-28T02:58:51.490Z,97194.03
2023-02-28T03:01:17.913Z,97193.53
2023-02-28T03:03:44.450Z,97190.56
2023-02-28T03:06:10.888Z,97191.41
2023-02-28T03:08:37.404Z,97186.88
2023-02-28T03:11:03.871Z,97194.09
2023-02-28T03:13:30.292Z,97189.13
2023-02-28T03:15:56.742Z,97190.13
2023-02-28T03:18:23.166Z,97190.28
2023-02-28T03:20:49.601Z,97183.28
2023-02-28T03:23:15.987Z,97183.41
2023-02-28T03:25:42.391Z,97185.72
2023-02-28T03:28:08.793Z,97183.88
2023-02-28T03:30:35.217Z,97180.41
2023-02-28T03:33:01.637Z,97180.25
2023-02-28T03:35:28.063Z,97179.44
2023-02-28T03:37:57.599Z,97184.66
2023-02-28T03:40:24.026Z,97175.16
2023-02-28T03:42:50.398Z,97178.47
2023-02-28T03:45:16.814Z,97175.47
2023-02-28T03:47:43.297Z,97179.34
2023-02-28T03:50:09.682Z,97182.81
2023-02-28T03:52:36.235Z,97184.13
2023-02-28T03:55:02.697Z,97184.63
2023-02-28T03:57:29.107Z,97188.47
2023-02-28T03:59:55.694Z,97191.13
2023-02-28T04:02:24.999Z,97188.63
2023-02-28T04:04:51.489Z,97188.63
2023-02-28T04:07:17.998Z,97187.81
2023-02-28T04:09:44.393Z,97188.81
2023-02-28T04:12:10.827Z,97184.31
2023-02-28T04:14:37.599Z,97190.16
2023-02-28T04:17:03.981Z,97186.13
2023-02-28T04:19:30.355Z,97190.97
2023-02-28T04:21:56.811Z,97194.81
2023-02-28T04:24:23.248Z,97190.16
2023-02-28T04:26:49.738Z,97181.84
2023-02-28T04:29:16.192Z,97189.31
2023-02-28T04:31:42.684Z,97192.47
2023-02-28T04:34:09.046Z,97183.69
2023-02-28T04:36:35.519Z,97188.81
2023-02-28T04:39:01.925Z,97193.97
2023-02-28T04:41:31.692Z,97192.13
2023-02-28T04:43:58.766Z,97192.81
2023-02-28T04:46:25.139Z,97197.63
2023-02-28T04:48:51.524Z,97189.47
2023-02-28T04:51:17.957Z,97191.81
2023-02-28T04:53:44.546Z,97196.16
2023-02-28T04:56:10.946Z,97195.16
2023-02-28T04:58:37.330Z,97202.44
2023-02-28T05:01:03.905Z,97203.78
2023-02-28T05:03:30.339Z,97204.75
2023-02-28T05:05:56.736Z,97213.59
2023-02-28T05:08:23.206Z,97216.59
2023-02-28T05:10:49.683Z,97211.59
2023-02-28T05:13:16.112Z,97216.44
2023-02-28T05:15:42.502Z,97219.59
2023-02-28T05:18:08.950Z,97222.09
2023-02-28T05:20:35.403Z,97215.59
2023-02-28T05:23:01.802Z,97220.75
2023-02-28T05:25:28.279Z,97222.06
2023-02-28T05:27:57.407Z,97218.75
2023-02-28T05:30:23.855Z,97223.72
2023-02-28T05:32:50.261Z,97221.72
2023-02-28T05:35:16.677Z,97220.22
2023-02-28T05:37:43.098Z,97222.69
2023-02-28T05:40:09.650Z,97226.69
2023-02-28T05:42:36.030Z,97229.00
2023-02-28T05:45:02.465Z,97234.84
2023-02-28T05:47:28.822Z,97225.84
2023-02-28T05:49:55.251Z,97229.69
2023-02-28T05:52:22.113Z,97224.81
2023-02-28T05:54:48.508Z,97228.81
2023-02-28T05:57:22.903Z,97234.38
2023-02-28T05:59:50.914Z,97227.44
2023-02-28T06:02:17.599Z,97232.75
2023-02-28T06:04:44.036Z,97235.59
2023-02-28T06:07:10.495Z,97233.75
2023-02-28T06:09:36.986Z,97245.06
2023-02-28T06:12:03.506Z,97232.75
2023-02-28T06:14:29.970Z,97242.22
2023-02-28T06:16:58.867Z,97244.72
2023-02-28T06:19:25.651Z,97243.56
2023-02-28T06:21:52.089Z,97244.91
2023-02-28T06:24:18.539Z,97250.22
2023-02-28T06:26:44.936Z,97250.22
2023-02-28T06:29:11.377Z,97245.06
2023-02-28T06:31:37.861Z,97255.22
2023-02-28T06:34:04.283Z,97263.69
2023-02-28T06:36:31.735Z,97262.53
2023-02-28T06:38:58.137Z,97262.88
2023-02-28T06:41:24.498Z,97276.34
2023-02-28T06:43:50.928Z,97272.69
2023-02-28T06:46:17.370Z,97279.00
2023-02-28T06:48:43.791Z,97270.34
2023-02-28T06:51:10.168Z,97275.19
2023-02-28T06:53:36.562Z,97277.00
2023-02-28T06:56:02.987Z,97270.03
2023-02-28T06:58:29.419Z,97271.69
2023-02-28T07:00:55.878Z,97268.34
2023-02-28T07:03:22.372Z,97270.03
2023-02-28T07:05:48.918Z,97270.00
2023-02-28T07:08:15.363Z,97269.03
2023-02-28T07:10:41.771Z,97276.69
2023-02-28T07:13:08.269Z,97276.34
2023-02-28T07:15:34.736Z,97278.31
2023-02-28T07:18:01.114Z,97281.34
2023-02-28T07:20:27.537Z,97283.19
2023-02-28T07:22:54.109Z,97282.84
2023-02-28T07:25:20.570Z,97280.16
2023-02-28T07:27:47.030Z,97282.66
2023-02-28T07:30:13.471Z,97290.66
2023-02-28T07:32:39.875Z,97288.31
2023-02-28T07:35:06.344Z,97292.66
2023-02-28T07:37:32.924Z,97286.81
2023-02-28T07:39:59.401Z,97296.97
2023-02-28T07:42:25.898Z,97282.66
2023-02-28T07:44:52.422Z,97290.00
2023-02-28T07:47:18.821Z,97294.97
2023-02-28T07:49:45.356Z,97292.63
2023-02-28T07:52:12.395Z,97291.34
2023-02-28T07:54:38.862Z,97285.16
2023-02-28T07:57:05.264Z,97283.34
2023-02-28T07:59:32.411Z,97284.47
2023-02-28T08:01:58.844Z,97291.00
2023-02-28T08:04:25.303Z,97284.34
2023-02-28T08:06:51.656Z,97284.97
2023-02-28T08:09:18.022Z,97292.81
2023-02-28T08:11:44.428Z,97290.97
2023-02-28T08:14:11.204Z,97293.66
2023-02-28T08:16:37.776Z,97291.00
2023-02-28T08:19:04.311Z,97293.13
2023-02-28T08:21:31.167Z,97295.63
2023-02-28T08:23:57.886Z,97300.47
2023-02-28T08:26:24.337Z,97300.66
2023-02-28T08:28:50.837Z,97298.28
2023-02-28T08:31:17.252Z,97300.94
2023-02-28T08:33:43.703Z,97300.81
2023-02-28T08:36:10.086Z,97297.63
2023-02-28T08:38:36.657Z,97299.63
2023-02-28T08:41:03.082Z,97300.97
2023-02-28T08:43:29.611Z,97304.47
2023-02-28T08:45:56.038Z,97309.31
2023-02-28T08:48:22.490Z,97307.47
2023-02-28T08:51:04.948Z,97310.94
2023-02-28T08:53:32.925Z,97306.25
2023-02-28T08:55:59.379Z,97306.78
2023-02-28T08:58:25.770Z,97314.63
2023-02-28T09:00:52.241Z,97308.78
2023-02-28T09:03:19.992Z,97308.94
2023-02-28T09:05:47.277Z,97305.94
2023-02-28T09:08:13.696Z,97312.94
2023-02-28T09:10:40.098Z,97318.59
2023-02-28T09:13:06.569Z,97316.91
2023-02-28T09:15:33.034Z,97310.78
2023-02-28T09:17:59.460Z,97311.28
2023-02-28T09:20:25.904Z,97312.75
2023-02-28T09:22:52.308Z,97312.75
2023-02-28T09:25:18.733Z,97309.63
2023-02-28T09:27:45.172Z,97312.94
2023-02-28T09:30:11.607Z,97311.59
2023-02-28T09:32:38.016Z,97316.91
2023-02-28T09:35:04.564Z,97314.94
2023-02-28T09:37:30.970Z,97308.97
2023-02-28T09:39:57.414Z,97313.78
2023-02-28T09:42:23.846Z,97308.59
2023-02-28T09:44:50.314Z,97311.59
2023-02-28T09:47:16.811Z,97309.44
2023-02-28T09:49:43.301Z,97313.09
2023-02-28T09:52:12.677Z,97310.94
2023-02-28T09:54:39.100Z,97313.25
2023-02-28T09:57:05.665Z,97316.25
2023-02-28T09:59:32.051Z,97322.25
2023-02-28T10:01:58.502Z,97316.09
2023-02-28T10:04:25.056Z,97316.56
2023-02-28T10:06:51.753Z,97320.56
2023-02-28T10:09:18.121Z,97323.59
2023-02-28T10:11:44.554Z,97335.22
2023-02-28T10:14:13.147Z,97327.09
2023-02-28T10:16:39.514Z,97334.56
2023-02-28T10:19:05.978Z,97333.09
2023-02-28T10:21:32.412Z,97337.56
2023-02-28T10:23:58.918Z,97334.75
2023-02-28T10:26:25.318Z,97344.41
2023-02-28T10:28:51.691Z,97341.91
2023-02-28T10:31:18.126Z,97343.41
2023-02-28T10:33:44.480Z,97352.06
2023-02-28T10:36:11.031Z,97351.22
2023-02-28T10:38:37.502Z,97355.72
2023-02-28T10:41:03.962Z,97348.22
2023-02-28T10:43:30.422Z,97353.06
2023-02-28T10:45:56.885Z,97348.91
2023-02-28T10:48:23.328Z,97357.38
2023-02-28T10:50:49.750Z,97355.38
2023-02-28T10:53:16.190Z,97358.72
2023-02-28T10:55:42.915Z,97354.56
2023-02-28T10:58:09.500Z,97355.38
2023-02-28T11:00:35.867Z,97354.25
2023-02-28T11:03:02.418Z,97349.22
2023-02-28T11:05:28.797Z,97349.22
2023-02-28T11:07:55.251Z,97349.91
2023-02-28T11:10:21.667Z,97350.72
2023-02-28T11:12:52.793Z,97352.22
2023-02-28T11:15:19.860Z,97355.22
2023-02-28T11:17:46.275Z,97355.88
2023-02-28T11:20:12.682Z,97347.03
2023-02-28T11:22:39.069Z,97351.06
2023-02-28T11:25:05.442Z,97349.91
2023-02-28T11:27:31.988Z,97352.75
2023-02-28T11:29:58.554Z,97332.91
2023-02-28T11:32:25.096Z,97338.56
2023-02-28T11:34:51.540Z,97344.72
2023-02-28T11:37:18.079Z,97336.72
2023-02-28T11:39:44.457Z,97335.91
2023-02-28T11:42:10.902Z,97327.56
2023-02-28T11:44:37.385Z,97327.69
2023-02-28T11:47:06.502Z,97318.53
2023-02-28T11:49:32.916Z,97325.88
2023-02-28T11:51:59.340Z,97320.69
2023-02-28T11:54:25.780Z,97329.50
2023-02-28T11:56:52.255Z,97328.88
2023-02-28T11:59:18.654Z,97324.84
2023-02-28T12:01:45.030Z,97319.81
2023-02-28T12:04:11.655Z,97322.31
2023-02-28T12:06:38.103Z,97319.31
2023-02-28T12:09:06.519Z,97313.94
2023-02-28T12:11:33.062Z,97315.03
2023-02-28T12:13:59.447Z,97322.34
2023-02-28T12:16:25.854Z,97311.94
2023-02-28T12:18:52.269Z,97322.91
2023-02-28T12:21:18.713Z,97312.59
2023-02-28T12:23:45.201Z,97314.22
2023-02-28T12:26:11.569Z,97313.97
2023-02-28T12:28:38.247Z,97313.03
2023-02-28T12:31:04.788Z,97316.88
2023-02-28T12:33:31.428Z,97310.13
2023-02-28T12:35:57.919Z,97299.25
2023-02-28T12:38:25.612Z,97297.81
2023-02-28T12:40:52.168Z,97298.88
2023-02-28T12:43:18.566Z,97297.38
2023-02-28T12:45:45.190Z,97294.03
2023-02-28T12:48:11.709Z,97293.84
2023-02-28T12:50:38.082Z,97289.13
2023-02-28T12:53:04.679Z,97280.22
2023-02-28T12:55:31.108Z,97288.69
2023-02-28T12:57:57.559Z,97282.88
2023-02-28T13:00:24.036Z,97284.38
2023-02-28T13:02:50.577Z,97287.59
2023-02-28T13:05:16.983Z,97280.94
2023-02-28T13:07:44.936Z,97286.19
2023-02-28T13:10:11.483Z,97279.03
2023-02-28T13:12:37.939Z,97277.34
2023-02-28T13:15:04.378Z,97281.50
2023-02-28T13:17:30.823Z,97282.97
2023-02-28T13:19:57.317Z,97277.00
2023-02-28T13:22:23.791Z,97278.41
2023-02-28T13:24:50.280Z,97273.53
2023-02-28T13:27:16.781Z,97282.69
2023-02-28T13:29:43.326Z,97281.69
2023-02-28T13:32:09.927Z,97281.69
2023-02-28T13:34:37.925Z,97281.66
2023-02-28T13:37:04.349Z,97275.94
2023-02-28T13:39:30.747Z,97285.44
2023-02-28T13:41:57.243Z,97283.56
2023-02-28T13:44:27.983Z,97285.66
2023-02-28T13:46:54.442Z,97280.59
2023-02-28T13:49:20.891Z,97283.22
2023-02-28T13:51:47.692Z,97278.28
2023-02-28T13:54:14.314Z,97281.44
2023-02-28T13:56:40.770Z,97286.59
2023-02-28T13:59:07.183Z,97282.25
2023-02-28T14:01:33.882Z,97281.63
2023-02-28T14:04:01.112Z,97287.72
2023-02-28T14:06:28.282Z,97288.38
2023-02-28T14:08:54.887Z,97291.47
2023-02-28T14:11:21.302Z,97295.91
2023-02-28T14:13:48.331Z,97297.22
2023-02-28T14:16:14.969Z,97294.06
2023-02-28T14:18:43.337Z,97291.09
2023-02-28T14:21:15.605Z,97294.84
2023-02-28T14:23:42.041Z,97299.19
2023-02-28T14:26:08.407Z,97299.25
2023-02-28T14:28:34.882Z,97292.25
2023-02-28T14:31:01.512Z,97290.47
2023-02-28T14:33:28.060Z,97297.22
2023-02-28T14:35:54.725Z,97283.09
2023-02-28T14:38:21.386Z,97280.63
2023-02-28T14:40:47.859Z,97277.78
2023-02-28T14:43:14.373Z,97276.97
2023-02-28T14:45:40.788Z,97278.28
2023-02-28T14:48:07.214Z,97280.69
2023-02-28T14:50:34.039Z,97281.13
2023-02-28T14:53:02.229Z,97279.13
2023-02-28T14:55:28.674Z,97280.94
2023-02-28T14:57:55.109Z,97274.03
2023-02-28T15:00:21.590Z,97273.19
2023-02-28T15:02:48.041Z,97272.72
2023-02-28T15:05:14.514Z,97275.69
2023-02-28T15:07:41.013Z,97275.59
2023-02-28T15:10:07.424Z,97273.13
2023-02-28T15:12:33.793Z,97261.41
2023-02-28T15:15:00.365Z,97273.84
2023-02-28T15:17:26.861Z,97267.25
2023-02-28T15:19:53.540Z,97266.78
2023-02-28T15:22:19.993Z,97266.41
2023-02-28T15:24:46.535Z,97261.34
2023-02-28T15:27:12.999Z,97274.91
2023-02-28T15:29:40.532Z,97276.47
2023-02-28T15:32:07.111Z,97276.19
2023-02-28T15:34:40.590Z,97269.72
2023-02-28T15:37:09.713Z,97271.28
2023-02-28T15:39:36.329Z,97269.09
2023-02-28T15:42:02.914Z,97266.44
2023-02-28T15:44:35.775Z,97265.13
2023-02-28T15:47:03.595Z,97261.06
2023-02-28T15:49:30.842Z,97264.84
2023-02-28T15:51:58.422Z,97265.81
2023-02-28T15:54:24.995Z,97273.28
2023-02-28T15:56:51.517Z,97273.94
2023-02-28T15:59:20.217Z,97270.69
2023-02-28T16:04:29.802Z,97282.34
2023-02-28T16:06:56.195Z,97274.47
2023-02-28T16:09:22.593Z,97266.81
2023-02-28T16:11:48.962Z,97270.75
2023-02-28T16:14:15.495Z,97275.19
2023-02-28T16:16:43.257Z,97276.13
2023-02-28T16:19:09.667Z,97284.59
2023-02-28T16:21:36.096Z,97280.72
2023-02-28T16:24:02.594Z,97287.25
2023-02-28T16:26:29.221Z,97292.78
2023-02-28T16:28:55.630Z,97288.44
2023-02-28T16:31:22.082Z,97280.44
2023-02-28T16:33:48.480Z,97292.50
2023-02-28T16:36:14.897Z,97293.69
2023-02-28T16:38:41.364Z,97285.97
2023-02-28T16:41:10.798Z,97294.63
2023-02-28T16:43:37.201Z,97292.59
2023-02-28T16:46:04.580Z,97297.97
2023-02-28T16:48:31.086Z,97296.28
2023-02-28T16:51:00.122Z,97297.84
2023-02-28T16:53:26.541Z,97297.03
2023-02-28T16:55:55.108Z,97296.34
2023-02-28T16:58:21.595Z,97295.72
2023-02-28T17:00:49.020Z,97296.72
2023-02-28T17:03:27.099Z,97292.56
2023-02-28T17:05:58.362Z,97295.25
2023-02-28T17:08:24.823Z,97311.09
2023-02-28T17:10:51.229Z,97305.75
2023-02-28T17:13:17.640Z,97311.94
2023-02-28T17:15:44.473Z,97313.78
2023-02-28T17:18:11.284Z,97315.44
2023-02-28T17:20:38.040Z,97318.13
2023-02-28T17:23:04.409Z,97312.50
2023-02-28T17:25:30.926Z,97309.91
2023-02-28T17:27:59.528Z,97318.19
2023-02-28T17:30:26.015Z,97319.84
2023-02-28T17:32:53.673Z,97318.72
2023-02-28T17:35:21.256Z,97327.31
2023-02-28T17:37:48.888Z,97322.91
2023-02-28T17:40:15.468Z,97329.22
2023-02-28T17:42:41.909Z,97336.09
2023-02-28T17:45:08.357Z,97337.88
2023-02-28T17:47:36.871Z,97326.44
2023-02-28T17:50:03.303Z,97333.00
2023-02-28T17:52:29.691Z,97325.94
2023-02-28T17:54:56.340Z,97337.75
2023-02-28T17:57:22.824Z,97336.72
2023-02-28T17:59:49.454Z,97337.66
2023-02-28T18:02:16.311Z,97341.16
2023-02-28T18:04:42.840Z,97342.69
2023-02-28T18:07:09.309Z,97344.06
2023-02-28T18:09:35.685Z,97347.22
2023-02-28T18:12:02.082Z,97341.72
2023-02-28T18:14:44.755Z,97348.66
2023-02-28T18:20:01.955Z,97342.31
2023-02-28T18:22:28.465Z,97339.06
2023-02-28T18:24:54.971Z,97343.72
2023-02-28T18:27:21.454Z,97341.88
2023-02-28T18:29:48.018Z,97344.06
2023-02-28T18:32:14.429Z,97351.06
2023-02-28T18:34:40.968Z,97359.59
2023-02-28T18:37:07.436Z,97353.91
2023-02-28T18:39:33.826Z,97355.41
2023-02-28T18:42:00.344Z,97347.50
2023-02-28T18:44:26.871Z,97353.34
2023-02-28T18:46:53.515Z,97356.66
2023-02-28T18:49:19.951Z,97362.50
2023-02-28T18:51:46.344Z,97354.13
2023-02-28T18:54:12.803Z,97352.63
2023-02-28T18:56:39.246Z,97352.81
2023-02-28T18:59:05.668Z,97356.44
2023-02-28T19:01:32.109Z,97357.94
2023-02-28T19:03:58.588Z,97365.59
2023-02-28T19:06:25.010Z,97361.75
2023-02-28T19:08:51.441Z,97370.41
2023-02-28T19:11:20.170Z,97370.94
2023-02-28T19:13:46.662Z,97380.47
2023-02-28T19:16:13.186Z,97373.72
2023-02-28T19:18:39.979Z,97385.81
2023-02-28T19:21:10.006Z,97380.78
2023-02-28T19:23:36.909Z,97378.63
2023-02-28T19:26:03.490Z,97388.84
2023-02-28T19:28:30.007Z,97386.22
2023-02-28T19:30:56.495Z,97385.19
2023-02-28T19:33:23.114Z,97382.53
2023-02-28T19:35:49.657Z,97385.38
2023-02-28T19:38:16.256Z,97380.22
2023-02-28T19:40:42.851Z,97383.84
2023-02-28T19:43:09.279Z,97385.19
2023-02-28T19:45:35.812Z,97384.34
2023-02-28T19:48:02.240Z,97377.31
2023-02-28T19:50:28.735Z,97372.69
2023-02-28T19:52:58.891Z,97376.31
2023-02-28T19:55:27.759Z,97377.50
2023-02-28T19:57:54.362Z,97379.97
2023-02-28T20:00:20.900Z,97382.09
2023-02-28T20:02:47.526Z,97378.25
2023-02-28T20:05:13.995Z,97376.56
2023-02-28T20:07:40.515Z,97376.84
2023-02-28T20:10:07.128Z,97380.41
2023-02-28T20:12:33.719Z,97388.56
2023-02-28T20:15:00.299Z,97382.88
2023-02-28T20:17:26.897Z,97382.38
2023-02-28T20:19:53.543Z,97379.41
2023-02-28T20:22:20.031Z,97375.34
2023-02-28T20:24:46.530Z,97375.72
2023-02-28T20:27:12.984Z,97380.59
2023-02-28T20:29:42.479Z,97386.25
2023-02-28T20:32:09.075Z,97379.56
2023-02-28T20:34:36.617Z,97376.31
2023-02-28T20:37:03.143Z,97376.78
2023-02-28T20:39:29.662Z,97378.47
2023-02-28T20:41:56.346Z,97381.13
2023-02-28T20:44:24.814Z,97383.44
2023-02-28T20:46:51.459Z,97392.97
2023-02-28T20:49:17.971Z,97388.13
2023-02-28T20:51:44.428Z,97387.78
2023-02-28T20:54:10.868Z,97388.16
2023-02-28T20:56:37.347Z,97384.31
2023-02-28T21:01:56.611Z,97390.63
2023-02-28T21:04:25.527Z,97391.28
2023-02-28T21:06:52.075Z,97399.63
2023-02-28T21:09:18.566Z,97400.31
2023-02-28T21:11:45.133Z,97397.47
2023-02-28T21:14:12.178Z,97402.16
2023-02-28T21:16:38.581Z,97401.47
2023-02-28T21:19:05.149Z,97398.28
2023-02-28T21:21:31.609Z,97397.63
2023-02-28T21:23:58.070Z,97399.16
2023-02-28T21:26:24.512Z,97405.69
2023-02-28T21:28:51.041Z,97396.19
2023-02-28T21:31:17.601Z,97392.88
2023-02-28T21:33:44.115Z,97395.88
2023-02-28T21:36:10.578Z,97402.22
2023-02-28T21:38:37.096Z,97399.38
2023-02-28T21:41:22.270Z,97399.22
2023-02-28T21:43:49.271Z,97408.03
2023-02-28T21:46:15.936Z,97405.19
2023-02-28T21:48:44.407Z,97401.19
2023-02-28T21:51:18.302Z,97407.34
2023-02-28T21:53:44.779Z,97412.78
2023-02-28T21:56:11.295Z,97405.94
2023-02-28T21:58:37.732Z,97409.13
2023-02-28T22:01:04.143Z,97400.78
2023-02-28T22:03:30.599Z,97405.13
2023-02-28T22:05:57.016Z,97398.09
2023-02-28T22:08:23.485Z,97398.28
2023-02-28T22:10:49.976Z,97392.94
2023-02-28T22:13:16.423Z,97394.09
2023-02-28T22:15:42.858Z,97394.56
2023-02-28T22:18:11.536Z,97391.91
2023-02-28T22:20:38.959Z,97394.91
2023-02-28T22:25:45.683Z,97386.00
2023-02-28T22:28:12.366Z,97391.97
2023-02-28T22:30:39.058Z,97386.66
2023-02-28T22:33:05.582Z,97384.63
2023-02-28T22:35:32.165Z,97388.78
2023-02-28T22:37:58.727Z,97394.81
2023-02-28T22:40:25.214Z,97386.00
2023-02-28T22:42:51.661Z,97393.13
2023-02-28T22:45:18.131Z,97391.34
2023-02-28T22:47:44.603Z,97390.47
2023-02-28T22:50:11.126Z,97395.97
2023-02-28T22:52:37.504Z,97389.13
2023-02-28T22:55:04.054Z,97387.78
2023-02-28T22:57:30.515Z,97390.47
2023-02-28T22:59:57.016Z,97390.16
2023-02-28T23:02:23.510Z,97386.81
2023-02-28T23:04:50.152Z,97389.78
2023-02-28T23:07:16.697Z,97388.97
2023-02-28T23:09:43.260Z,97388.03
2023-02-28T23:12:09.893Z,97392.16
2023-02-28T23:14:36.361Z,97398.88
2023-02-28T23:17:02.925Z,97391.56
2023-02-28T23:19:29.399Z,97394.69
2023-02-28T23:22:00.205Z,97397.00
2023-02-28T23:24:26.822Z,97394.66
2023-02-28T23:26:53.356Z,97386.00
2023-02-28T23:29:22.090Z,97377.28
2023-02-28T23:31:50.801Z,97377.59
2023-02-28T23:34:17.325Z,97382.28
2023-02-28T23:36:43.721Z,97373.31
2023-02-28T23:39:11.270Z,97369.66
2023-02-28T23:41:37.805Z,97377.38
2023-02-28T23:44:04.332Z,97379.53
2023-02-28T23:46:32.274Z,97379.06
2023-02-28T23:48:58.862Z,97381.72
2023-02-28T23:51:25.379Z,97380.88
2023-02-28T23:53:51.830Z,97386.00
2023-02-28T23:56:18.268Z,97385.03
2023-02-28T23:58:44.688Z,97383.69
